createdAt,value
2023-04-07T00:01:23.605Z,14.46
2023-04-07T00:03:49.831Z,14.46
2023-04-07T00:06:16.027Z,14.45
2023-04-07T00:08:42.140Z,14.46
2023-04-07T00:11:08.243Z,14.46
2023-04-07T00:13:34.355Z,14.46
2023-04-07T00:16:00.537Z,14.45
2023-04-07T00:18:26.712Z,14.46
2023-04-07T00:20:52.820Z,14.46
2023-04-07T00:23:18.960Z,14.45
2023-04-07T00:25:45.078Z,14.46
2023-04-07T00:28:11.238Z,14.44
2023-04-07T00:30:37.333Z,14.46
2023-04-07T00:33:03.493Z,14.45
2023-04-07T00:35:29.690Z,14.45
2023-04-07T00:37:55.809Z,14.46
2023-04-07T00:40:21.914Z,14.45
2023-04-07T00:42:48.017Z,14.45
2023-04-07T00:45:14.109Z,14.44
2023-04-07T00:47:40.245Z,14.45
2023-04-07T00:50:06.388Z,14.44
2023-04-07T00:52:32.474Z,14.45
2023-04-07T00:54:58.584Z,14.44
2023-04-07T00:57:24.690Z,14.44
2023-04-07T00:59:50.792Z,14.44
2023-04-07T01:02:16.951Z,14.44
2023-04-07T01:04:43.297Z,14.44
2023-04-07T01:07:09.503Z,14.44
2023-04-07T01:09:35.605Z,14.44
2023-04-07T01:12:01.756Z,14.44
2023-04-07T01:14:27.844Z,14.44
2023-04-07T01:16:55.144Z,14.44
2023-04-07T01:19:21.391Z,14.43
2023-04-07T01:21:47.477Z,14.44
2023-04-07T01:24:13.572Z,14.43
2023-04-07T01:26:39.691Z,14.43
2023-04-07T01:29:05.787Z,14.44
2023-04-07T01:31:31.933Z,14.43
2023-04-07T01:33:58.081Z,14.44
2023-04-07T01:36:24.177Z,14.44
2023-04-07T01:38:50.276Z,14.43
2023-04-07T01:41:16.436Z,14.43
2023-04-07T01:43:43.838Z,14.43
2023-04-07T01:46:10.600Z,14.43
2023-04-07T01:48:36.738Z,14.43
2023-04-07T01:51:02.852Z,14.43
2023-04-07T01:53:28.954Z,14.42
2023-04-07T01:55:55.077Z,14.43
2023-04-07T01:58:21.188Z,14.43
2023-04-07T02:00:47.326Z,14.43
2023-04-07T02:03:13.678Z,14.43
2023-04-07T02:05:39.905Z,14.43
2023-04-07T02:08:06.006Z,14.43
2023-04-07T02:10:32.133Z,14.43
2023-04-07T02:12:58.216Z,14.42
2023-04-07T02:15:24.316Z,14.43
2023-04-07T02:17:50.428Z,14.43
2023-04-07T02:20:16.557Z,14.42
2023-04-07T02:22:42.659Z,14.43
2023-04-07T02:25:08.765Z,14.42
2023-04-07T02:27:34.873Z,14.43
2023-04-07T02:30:00.997Z,14.42
2023-04-07T02:32:27.133Z,14.42
2023-04-07T02:34:53.251Z,14.43
2023-04-07T02:37:19.337Z,14.42
2023-04-07T02:39:45.548Z,14.42
2023-04-07T02:42:11.652Z,14.43
2023-04-07T02:44:37.735Z,14.44
2023-04-07T02:47:03.894Z,14.43
2023-04-07T02:49:29.994Z,14.43
2023-04-07T02:51:56.085Z,14.42
2023-04-07T02:54:22.217Z,14.43
2023-04-07T02:56:48.317Z,14.42
2023-04-07T02:59:14.402Z,14.42
2023-04-07T03:01:40.645Z,14.42
2023-04-07T03:04:06.909Z,14.42
2023-04-07T03:06:33.050Z,14.42
2023-04-07T03:08:59.425Z,14.42
2023-04-07T03:11:25.710Z,14.42
2023-04-07T03:13:52.071Z,14.41
2023-04-07T03:16:18.539Z,14.43
2023-04-07T03:18:44.791Z,14.41
2023-04-07T03:21:11.102Z,14.42
2023-04-07T03:23:37.353Z,14.43
2023-04-07T03:26:03.546Z,14.42
2023-04-07T03:28:29.680Z,14.42
2023-04-07T03:30:56.061Z,14.41
2023-04-07T03:33:22.246Z,14.41
2023-04-07T03:35:48.360Z,14.41
2023-04-07T03:38:14.502Z,14.42
2023-04-07T03:40:40.614Z,14.42
2023-04-07T03:43:06.702Z,14.43
2023-04-07T03:45:32.822Z,14.42
2023-04-07T03:47:58.936Z,14.42
2023-04-07T03:50:25.086Z,14.43
2023-04-07T03:52:51.297Z,14.43
2023-04-07T03:55:17.391Z,14.43
2023-04-07T03:57:43.492Z,14.44
2023-04-07T04:00:09.696Z,14.43
2023-04-07T04:02:35.828Z,14.43
2023-04-07T04:05:02.024Z,14.42
2023-04-07T04:07:28.155Z,14.42
2023-04-07T04:09:54.257Z,14.43
2023-04-07T04:12:20.354Z,14.43
2023-04-07T04:14:46.490Z,14.42
2023-04-07T04:17:12.592Z,14.43
2023-04-07T04:19:38.700Z,14.42
2023-04-07T04:22:04.818Z,14.43
2023-04-07T04:24:30.914Z,14.43
2023-04-07T04:26:57.000Z,14.44
2023-04-07T04:29:23.142Z,14.43
2023-04-07T04:31:49.306Z,14.42
2023-04-07T04:34:15.472Z,14.42
2023-04-07T04:36:41.662Z,14.43
2023-04-07T04:39:08.057Z,14.42
2023-04-07T04:41:34.188Z,14.43
2023-04-07T04:44:00.349Z,14.42
2023-04-07T04:46:26.479Z,14.43
2023-04-07T04:48:52.628Z,14.42
2023-04-07T04:51:19.234Z,14.43
2023-04-07T04:53:45.343Z,14.42
2023-04-07T04:56:11.445Z,14.42
2023-04-07T04:58:37.563Z,14.43
2023-04-07T05:01:03.725Z,14.44
2023-04-07T05:03:30.114Z,14.43
2023-04-07T05:05:56.802Z,14.42
2023-04-07T05:08:22.904Z,14.43
2023-04-07T05:10:48.996Z,14.43
2023-04-07T05:13:15.104Z,14.43
2023-04-07T05:15:41.221Z,14.43
2023-04-07T05:18:07.326Z,14.43
2023-04-07T05:20:33.453Z,14.43
2023-04-07T05:22:59.551Z,14.42
2023-04-07T05:25:25.660Z,14.42
2023-04-07T05:27:51.773Z,14.42
2023-04-07T05:30:17.892Z,14.43
2023-04-07T05:32:44.063Z,14.43
2023-04-07T05:35:10.212Z,14.43
2023-04-07T05:37:36.339Z,14.42
2023-04-07T05:40:02.480Z,14.42
2023-04-07T05:42:28.623Z,14.41
2023-04-07T05:44:54.736Z,14.42
2023-04-07T05:47:20.987Z,14.41
2023-04-07T05:49:47.114Z,14.42
2023-04-07T05:52:13.205Z,14.42
2023-04-07T05:54:39.310Z,14.42
2023-04-07T05:57:05.819Z,14.42
2023-04-07T05:59:31.929Z,14.41
2023-04-07T06:01:58.098Z,14.41
2023-04-07T06:04:24.243Z,14.41
2023-04-07T06:06:50.351Z,14.42
2023-04-07T06:09:16.455Z,14.41
2023-04-07T06:11:42.575Z,14.41
2023-04-07T06:14:08.686Z,14.42
2023-04-07T06:16:34.812Z,14.41
2023-04-07T06:19:00.950Z,14.42
2023-04-07T06:21:27.073Z,14.41
2023-04-07T06:23:53.173Z,14.41
2023-04-07T06:26:19.297Z,14.42
2023-04-07T06:28:45.389Z,14.40
2023-04-07T06:31:11.524Z,14.41
2023-04-07T06:33:37.680Z,14.41
2023-04-07T06:36:03.771Z,14.41
2023-04-07T06:38:29.935Z,14.40
2023-04-07T06:40:56.048Z,14.41
2023-04-07T06:43:22.148Z,14.40
2023-04-07T06:45:48.687Z,14.42
2023-04-07T06:48:14.943Z,14.41
2023-04-07T06:50:41.126Z,14.41
2023-04-07T06:53:07.253Z,14.41
2023-04-07T06:55:33.509Z,14.41
2023-04-07T06:57:59.672Z,14.40
2023-04-07T07:00:25.757Z,14.40
2023-04-07T07:02:52.046Z,14.41
2023-04-07T07:05:18.254Z,14.41
2023-04-07T07:07:44.543Z,14.41
2023-04-07T07:10:10.692Z,14.40
2023-04-07T07:12:36.812Z,14.39
2023-04-07T07:15:02.928Z,14.40
2023-04-07T07:17:29.103Z,14.41
2023-04-07T07:19:55.223Z,14.40
2023-04-07T07:22:21.325Z,14.40
2023-04-07T07:24:47.471Z,14.39
2023-04-07T07:27:13.587Z,14.40
2023-04-07T07:29:39.703Z,14.40
2023-04-07T07:32:05.819Z,14.40
2023-04-07T07:34:31.935Z,14.40
2023-04-07T07:36:58.030Z,14.40
2023-04-07T07:39:24.153Z,14.40
2023-04-07T07:41:50.262Z,14.39
2023-04-07T07:44:16.358Z,14.39
2023-04-07T07:46:42.542Z,14.38
2023-04-07T07:49:08.686Z,14.39
2023-04-07T07:51:34.786Z,14.39
2023-04-07T07:54:00.925Z,14.39
2023-04-07T07:56:27.028Z,14.39
2023-04-07T07:58:53.114Z,14.40
2023-04-07T08:01:19.615Z,14.39
2023-04-07T08:03:45.926Z,14.39
2023-04-07T08:06:12.292Z,14.40
2023-04-07T08:08:38.733Z,14.39
2023-04-07T08:11:04.876Z,14.38
2023-04-07T08:13:30.994Z,14.38
2023-04-07T08:15:57.150Z,14.39
2023-04-07T08:18:23.268Z,14.38
2023-04-07T08:20:49.372Z,14.38
2023-04-07T08:23:15.487Z,14.39
2023-04-07T08:25:41.583Z,14.39
2023-04-07T08:28:07.681Z,14.39
2023-04-07T08:30:33.831Z,14.40
2023-04-07T08:32:59.955Z,14.39
2023-04-07T08:35:26.072Z,14.39
2023-04-07T08:37:52.212Z,14.39
2023-04-07T08:40:18.317Z,14.39
2023-04-07T08:42:44.407Z,14.39
2023-04-07T08:45:10.531Z,14.39
2023-04-07T08:47:36.698Z,14.38
2023-04-07T08:50:02.905Z,14.40
2023-04-07T08:52:29.016Z,14.39
2023-04-07T08:54:55.131Z,14.39
2023-04-07T08:57:21.231Z,14.39
2023-04-07T08:59:47.325Z,14.38
2023-04-07T09:02:13.442Z,14.38
2023-04-07T09:04:39.538Z,14.39
2023-04-07T09:07:05.774Z,14.39
2023-04-07T09:09:31.962Z,14.38
2023-04-07T09:11:58.058Z,14.39
2023-04-07T09:14:24.181Z,14.39
2023-04-07T09:16:50.315Z,14.39
2023-04-07T09:19:16.434Z,14.38
2023-04-07T09:21:42.560Z,14.39
2023-04-07T09:24:08.646Z,14.39
2023-04-07T09:26:34.745Z,14.38
2023-04-07T09:29:00.856Z,14.39
2023-04-07T09:31:27.018Z,14.38
2023-04-07T09:33:53.140Z,14.39
2023-04-07T09:36:19.252Z,14.38
2023-04-07T09:38:45.358Z,14.38
2023-04-07T09:41:11.519Z,14.38
2023-04-07T09:43:37.689Z,14.37
2023-04-07T09:46:03.844Z,14.39
2023-04-07T09:48:30.005Z,14.38
2023-04-07T09:50:56.126Z,14.39
2023-04-07T09:53:22.245Z,14.39
2023-04-07T09:55:48.350Z,14.38
2023-04-07T09:58:14.469Z,14.38
2023-04-07T10:00:40.590Z,14.38
2023-04-07T10:03:06.807Z,14.38
2023-04-07T10:05:32.979Z,14.38
2023-04-07T10:07:59.082Z,14.38
2023-04-07T10:10:25.186Z,14.38
2023-04-07T10:12:51.317Z,14.38
2023-04-07T10:15:17.440Z,14.38
2023-04-07T10:17:43.619Z,14.38
2023-04-07T10:20:09.770Z,14.39
2023-04-07T10:22:35.875Z,14.38
2023-04-07T10:25:01.964Z,14.39
2023-04-07T10:27:28.082Z,14.38
2023-04-07T10:29:54.227Z,14.38
2023-04-07T10:32:20.328Z,14.39
2023-04-07T10:34:46.545Z,14.39
2023-04-07T10:37:12.648Z,14.38
2023-04-07T10:39:38.750Z,14.37
2023-04-07T10:42:04.871Z,14.38
2023-04-07T10:44:30.981Z,14.39
2023-04-07T10:46:57.096Z,14.38
2023-04-07T10:49:23.219Z,14.39
2023-04-07T10:51:49.323Z,14.38
2023-04-07T10:54:15.555Z,14.37
2023-04-07T10:56:41.678Z,14.38
2023-04-07T10:59:07.793Z,14.38
2023-04-07T11:01:33.976Z,14.37
2023-04-07T11:04:00.335Z,14.38
2023-04-07T11:06:26.537Z,14.37
2023-04-07T11:08:52.661Z,14.38
2023-04-07T11:11:18.811Z,14.38
2023-04-07T11:13:44.946Z,14.37
2023-04-07T11:16:11.093Z,14.38
2023-04-07T11:18:37.288Z,14.38
2023-04-07T11:21:03.404Z,14.38
2023-04-07T11:23:29.542Z,14.39
2023-04-07T11:25:55.734Z,14.38
2023-04-07T11:28:21.857Z,14.38
2023-04-07T11:30:47.947Z,14.38
2023-04-07T11:33:14.059Z,14.37
2023-04-07T11:35:40.270Z,14.38
2023-04-07T11:38:06.370Z,14.39
2023-04-07T11:40:32.476Z,14.38
2023-04-07T11:42:58.601Z,14.37
2023-04-07T11:45:24.713Z,14.38
2023-04-07T11:47:50.877Z,14.38
2023-04-07T11:50:16.981Z,14.38
2023-04-07T11:52:43.073Z,14.37
2023-04-07T11:55:09.209Z,14.38
2023-04-07T11:57:35.324Z,14.37
2023-04-07T12:00:01.457Z,14.38
2023-04-07T12:02:27.718Z,14.38
2023-04-07T12:04:53.894Z,14.37
2023-04-07T12:07:20.051Z,14.38
2023-04-07T12:09:46.166Z,14.38
2023-04-07T12:12:12.269Z,14.38
2023-04-07T12:14:38.388Z,14.37
2023-04-07T12:17:04.680Z,14.37
2023-04-07T12:19:30.890Z,14.37
2023-04-07T12:21:56.989Z,14.37
2023-04-07T12:24:23.139Z,14.38
2023-04-07T12:26:49.239Z,14.38
2023-04-07T12:29:15.337Z,14.38
2023-04-07T12:31:41.492Z,14.38
2023-04-07T12:34:07.603Z,14.39
2023-04-07T12:36:33.687Z,14.38
2023-04-07T12:38:59.811Z,14.38
2023-04-07T12:41:25.913Z,14.39
2023-04-07T12:43:52.482Z,14.39
2023-04-07T12:46:18.823Z,14.39
2023-04-07T12:48:44.986Z,14.39
2023-04-07T12:51:11.109Z,14.40
2023-04-07T12:53:37.262Z,14.39
2023-04-07T12:56:03.359Z,14.40
2023-04-07T12:58:29.456Z,14.40
2023-04-07T13:00:55.607Z,14.39
2023-04-07T13:03:21.917Z,14.40
2023-04-07T13:05:48.153Z,14.40
2023-04-07T13:08:14.292Z,14.42
2023-04-07T13:10:40.395Z,14.40
2023-04-07T13:13:06.510Z,14.41
2023-04-07T13:15:32.888Z,14.41
2023-04-07T13:17:59.011Z,14.41
2023-04-07T13:20:25.141Z,14.41
2023-04-07T13:23:03.716Z,14.41
2023-04-07T13:25:33.470Z,14.41
2023-04-07T13:27:59.626Z,14.41
2023-04-07T13:30:25.767Z,14.43
2023-04-07T13:32:51.957Z,14.42
2023-04-07T13:35:18.170Z,14.42
2023-04-07T13:37:44.295Z,14.41
2023-04-07T13:40:10.480Z,14.43
2023-04-07T13:42:36.627Z,14.43
2023-04-07T13:45:02.754Z,14.42
2023-04-07T13:47:28.911Z,14.43
2023-04-07T13:49:55.057Z,14.43
2023-04-07T13:52:21.150Z,14.43
2023-04-07T13:54:47.272Z,14.44
2023-04-07T13:57:13.417Z,14.45
2023-04-07T13:59:39.525Z,14.45
2023-04-07T14:02:05.720Z,14.46
2023-04-07T14:04:31.949Z,14.46
2023-04-07T14:06:58.081Z,14.46
2023-04-07T14:09:24.183Z,14.47
2023-04-07T14:11:50.299Z,14.46
2023-04-07T14:14:16.415Z,14.48
2023-04-07T14:16:42.516Z,14.47
2023-04-07T14:19:08.691Z,14.49
2023-04-07T14:21:34.922Z,14.49
2023-04-07T14:24:01.062Z,14.49
2023-04-07T14:26:27.356Z,14.51
2023-04-07T14:28:53.445Z,14.51
2023-04-07T14:31:19.604Z,14.51
2023-04-07T14:33:45.736Z,14.52
2023-04-07T14:36:11.887Z,14.52
2023-04-07T14:38:38.036Z,14.53
2023-04-07T14:43:33.150Z,14.52
2023-04-07T14:45:59.314Z,14.55
2023-04-07T14:48:25.481Z,14.54
2023-04-07T14:51:02.278Z,14.55
2023-04-07T14:53:34.767Z,14.55
2023-04-07T14:56:00.885Z,14.55
2023-04-07T14:58:27.005Z,14.57
2023-04-07T15:00:53.150Z,14.56
2023-04-07T15:03:19.439Z,14.57
2023-04-07T15:05:45.667Z,14.56
2023-04-07T15:08:11.811Z,14.58
2023-04-07T15:10:37.925Z,14.58
2023-04-07T15:13:04.059Z,14.59
2023-04-07T15:15:30.182Z,14.59
2023-04-07T15:17:56.302Z,14.60
2023-04-07T15:20:22.406Z,14.60
2023-04-07T15:22:48.572Z,14.61
2023-04-07T15:25:14.666Z,14.61
2023-04-07T15:27:40.837Z,14.62
2023-04-07T15:30:07.189Z,14.63
2023-04-07T15:32:33.395Z,14.62
2023-04-07T15:34:59.537Z,14.63
2023-04-07T15:37:25.806Z,14.64
2023-04-07T15:39:52.120Z,14.65
2023-04-07T15:42:18.214Z,14.66
2023-04-07T15:44:44.632Z,14.66
2023-04-07T15:47:11.036Z,14.67
2023-04-07T15:49:37.248Z,14.68
2023-04-07T15:52:03.355Z,14.67
2023-04-07T15:54:29.995Z,14.67
2023-04-07T15:56:56.103Z,14.69
2023-04-07T15:59:22.240Z,14.68
2023-04-07T16:01:48.397Z,14.70
2023-04-07T16:04:14.776Z,14.70
2023-04-07T16:06:40.953Z,14.72
2023-04-07T16:09:07.205Z,14.72
2023-04-07T16:11:33.350Z,14.72
2023-04-07T16:13:59.465Z,14.73
2023-04-07T16:16:25.567Z,14.73
2023-04-07T16:18:51.677Z,14.73
2023-04-07T16:21:17.787Z,14.75
2023-04-07T16:23:43.871Z,14.75
2023-04-07T16:26:09.970Z,14.75
2023-04-07T16:28:37.081Z,14.75
2023-04-07T16:31:03.191Z,14.77
2023-04-07T16:33:29.298Z,14.78
2023-04-07T16:35:55.448Z,14.79
2023-04-07T16:38:21.638Z,14.79
2023-04-07T16:41:00.588Z,14.79
2023-04-07T16:43:29.197Z,14.79
2023-04-07T16:45:55.340Z,14.81
2023-04-07T16:48:21.462Z,14.80
2023-04-07T16:50:47.595Z,14.81
2023-04-07T16:53:13.698Z,14.82
2023-04-07T16:55:39.798Z,14.83
2023-04-07T16:58:05.931Z,14.83
2023-04-07T17:00:32.063Z,14.84
2023-04-07T17:02:58.376Z,14.84
2023-04-07T17:05:24.664Z,14.84
2023-04-07T17:07:50.808Z,14.85
2023-04-07T17:10:16.913Z,14.85
2023-04-07T17:12:43.036Z,14.85
2023-04-07T17:15:09.148Z,14.87
2023-04-07T17:17:35.325Z,14.88
2023-04-07T17:20:01.578Z,14.88
2023-04-07T17:22:27.774Z,14.88
2023-04-07T17:24:53.883Z,14.89
2023-04-07T17:27:20.169Z,14.89
2023-04-07T17:29:46.288Z,14.91
2023-04-07T17:32:12.404Z,14.91
2023-04-07T17:34:39.011Z,14.91
2023-04-07T17:37:05.141Z,14.90
2023-04-07T17:39:31.237Z,14.91
2023-04-07T17:41:57.359Z,14.93
2023-04-07T17:44:23.482Z,14.93
2023-04-07T17:46:49.717Z,14.95
2023-04-07T17:49:15.867Z,14.95
2023-04-07T17:51:41.984Z,14.95
2023-04-07T17:54:08.087Z,14.97
2023-04-07T17:56:34.339Z,14.96
2023-04-07T17:59:00.496Z,14.98
2023-04-07T18:01:26.629Z,14.96
2023-04-07T18:03:52.973Z,14.98
2023-04-07T18:06:19.420Z,14.99
2023-04-07T18:08:45.624Z,15.00
2023-04-07T18:11:11.727Z,15.00
2023-04-07T18:13:37.867Z,14.99
2023-04-07T18:16:03.978Z,15.00
2023-04-07T18:18:30.127Z,15.01
2023-04-07T18:20:56.233Z,15.01
2023-04-07T18:23:22.336Z,15.03
2023-04-07T18:25:48.457Z,15.03
2023-04-07T18:28:14.576Z,15.03
2023-04-07T18:30:40.682Z,15.04
2023-04-07T18:33:06.865Z,15.06
2023-04-07T18:35:33.059Z,15.06
2023-04-07T18:37:59.195Z,15.06
2023-04-07T18:40:25.333Z,15.07
2023-04-07T18:42:51.433Z,15.07
2023-04-07T18:45:17.550Z,15.07
2023-04-07T18:47:43.740Z,15.08
2023-04-07T18:50:09.868Z,15.09
2023-04-07T18:52:36.027Z,15.09
2023-04-07T18:55:02.153Z,15.09
2023-04-07T18:57:28.287Z,15.09
2023-04-07T18:59:54.454Z,15.11
2023-04-07T19:02:20.814Z,15.11
2023-04-07T19:04:47.060Z,15.12
2023-04-07T19:07:13.145Z,15.13
2023-04-07T19:09:39.278Z,15.14
2023-04-07T19:12:05.383Z,15.14
2023-04-07T19:14:31.481Z,15.15
2023-04-07T19:16:57.614Z,15.16
2023-04-07T19:19:23.706Z,15.15
2023-04-07T19:21:49.800Z,15.17
2023-04-07T19:24:15.923Z,15.18
2023-04-07T19:26:42.023Z,15.17
2023-04-07T19:29:08.142Z,15.19
2023-04-07T19:31:34.305Z,15.19
2023-04-07T19:34:00.454Z,15.19
2023-04-07T19:36:26.585Z,15.20
2023-04-07T19:38:52.756Z,15.20
2023-04-07T19:41:18.858Z,15.21
2023-04-07T19:43:44.986Z,15.22
2023-04-07T19:46:11.136Z,15.22
2023-04-07T19:48:37.248Z,15.24
2023-04-07T19:51:04.872Z,15.24
2023-04-07T19:53:32.883Z,15.23
2023-04-07T19:55:59.023Z,15.22
2023-04-07T19:58:25.128Z,15.25
2023-04-07T20:00:51.536Z,15.25
2023-04-07T20:03:17.802Z,15.25
2023-04-07T20:05:44.004Z,15.26
2023-04-07T20:08:10.131Z,15.26
2023-04-07T20:10:36.222Z,15.26
2023-04-07T20:13:02.590Z,15.27
2023-04-07T20:15:29.207Z,15.27
2023-04-07T20:17:55.321Z,15.29
2023-04-07T20:20:21.454Z,15.29
2023-04-07T20:22:47.572Z,15.29
2023-04-07T20:25:13.677Z,15.30
2023-04-07T20:27:39.811Z,15.30
2023-04-07T20:30:05.945Z,15.30
2023-04-07T20:32:32.082Z,15.31
2023-04-07T20:34:58.204Z,15.32
2023-04-07T20:37:24.371Z,15.31
2023-04-07T20:39:50.489Z,15.32
2023-04-07T20:42:16.605Z,15.33
2023-04-07T20:44:42.847Z,15.34
2023-04-07T20:47:08.967Z,15.33
2023-04-07T20:49:35.080Z,15.33
2023-04-07T20:52:01.212Z,15.34
2023-04-07T20:54:27.312Z,15.36
2023-04-07T20:56:53.410Z,15.36
2023-04-07T20:59:19.586Z,15.36
2023-04-07T21:01:45.738Z,15.37
2023-04-07T21:04:12.018Z,15.37
2023-04-07T21:06:38.273Z,15.36
2023-04-07T21:09:04.367Z,15.37
2023-04-07T21:11:30.523Z,15.38
2023-04-07T21:13:56.654Z,15.39
2023-04-07T21:16:22.876Z,15.39
2023-04-07T21:18:49.178Z,15.40
2023-04-07T21:21:15.390Z,15.39
2023-04-07T21:23:41.462Z,15.39
2023-04-07T21:26:07.559Z,15.39
2023-04-07T21:28:33.688Z,15.40
2023-04-07T21:30:59.806Z,15.40
2023-04-07T21:33:25.930Z,15.41
2023-04-07T21:35:52.073Z,15.41
2023-04-07T21:38:18.205Z,15.43
2023-04-07T21:40:44.311Z,15.42
2023-04-07T21:43:10.944Z,15.43
2023-04-07T21:45:37.044Z,15.43
2023-04-07T21:48:03.179Z,15.45
2023-04-07T21:50:29.327Z,15.45
2023-04-07T21:52:55.425Z,15.45
2023-04-07T21:55:21.526Z,15.45
2023-04-07T21:57:47.686Z,15.45
2023-04-07T22:00:13.820Z,15.45
2023-04-07T22:02:40.152Z,15.45
2023-04-07T22:05:06.427Z,15.46
2023-04-07T22:07:32.530Z,15.46
2023-04-07T22:09:58.644Z,15.47
2023-04-07T22:12:24.756Z,15.47
2023-04-07T22:14:50.856Z,15.48
2023-04-07T22:17:16.959Z,15.48
2023-04-07T22:19:43.132Z,15.47
2023-04-07T22:22:09.231Z,15.48
2023-04-07T22:24:35.326Z,15.48
2023-04-07T22:27:01.453Z,15.48
2023-04-07T22:29:27.555Z,15.50
2023-04-07T22:31:53.723Z,15.49
2023-04-07T22:34:19.882Z,15.49
2023-04-07T22:36:45.988Z,15.51
2023-04-07T22:39:12.085Z,15.50
2023-04-07T22:41:38.199Z,15.51
2023-04-07T22:44:04.321Z,15.52
2023-04-07T22:46:30.448Z,15.51
2023-04-07T22:48:56.605Z,15.52
2023-04-07T22:51:22.713Z,15.51
2023-04-07T22:53:48.824Z,15.53
2023-04-07T22:56:14.995Z,15.53
2023-04-07T22:58:41.091Z,15.53
2023-04-07T23:01:07.234Z,15.52
2023-04-07T23:03:34.828Z,15.53
2023-04-07T23:06:01.002Z,15.53
2023-04-07T23:08:27.096Z,15.52
2023-04-07T23:10:53.214Z,15.55
2023-04-07T23:13:19.309Z,15.55
2023-04-07T23:15:45.400Z,15.56
2023-04-07T23:18:11.578Z,15.55
2023-04-07T23:20:37.726Z,15.56
2023-04-07T23:23:03.821Z,15.56
2023-04-07T23:25:29.940Z,15.57
2023-04-07T23:27:56.032Z,15.56
2023-04-07T23:30:22.120Z,15.57
2023-04-07T23:32:48.281Z,15.57
2023-04-07T23:35:14.396Z,15.57
2023-04-07T23:37:40.506Z,15.57
2023-04-07T23:40:06.652Z,15.57
2023-04-07T23:42:32.742Z,15.57
2023-04-07T23:44:58.853Z,15.57
2023-04-07T23:47:25.294Z,15.58
2023-04-07T23:49:51.415Z,15.57
2023-04-07T23:52:17.512Z,15.59
2023-04-07T23:54:43.618Z,15.59
2023-04-07T23:57:09.702Z,15.58
2023-04-07T23:59:35.789Z,15.58
